Time;durP1;ratioP1;P1;durP2;ratioP2;P2;SDS_P1;SDS_P2;PMS_P1;PMS_P2;Temp;Humidity;BMP_temperature;BMP_pressure;BME280_temperature;BME280_humidity;BME280_pressure;Samples;Min_cycle;Max_cycle;Signal;HPM_P1;HPM_P2
2023/02/03 00:00:31;;;;;;;5.20;2.50;;;;;;;1.06;93.20;101056.30;105088;1262;97980;-75
2023/02/03 00:03:29;;;;;;;4.60;2.50;;;;;;;1.05;93.21;101052.88;105125;1262;98594;-75
2023/02/03 00:06:15;;;;;;;6.50;2.70;;;;;;;1.05;93.28;101062.55;105169;1259;101369;-74
2023/02/03 00:09:01;;;;;;;5.80;2.50;;;;;;;1.05;93.27;101069.52;105148;1260;99133;-75
2023/02/03 00:11:46;;;;;;;5.70;2.90;;;;;;;1.03;93.17;101067.37;105045;1262;98676;-74
2023/02/03 00:14:32;;;;;;;5.90;2.80;;;;;;;1.05;93.34;101069.17;105109;1263;98055;-75
2023/02/03 00:17:18;;;;;;;4.50;2.20;;;;;;;1.08;93.29;101073.74;105034;1262;98480;-75
2023/02/03 00:20:04;;;;;;;5.20;2.50;;;;;;;1.06;93.09;101075.41;104992;1260;102562;-75
2023/02/03 00:22:49;;;;;;;5.70;3.40;;;;;;;1.06;93.19;101080.02;105207;1260;99448;-75
2023/02/03 00:25:35;;;;;;;6.10;2.80;;;;;;;1.06;92.98;101081.45;105077;1262;99086;-75
2023/02/03 00:28:20;;;;;;;6.20;2.30;;;;;;;1.05;92.87;101091.20;105084;1262;98055;-75
2023/02/03 00:31:14;;;;;;;6.80;2.30;;;;;;;1.05;93.04;101099.08;105122;1264;98215;-74
2023/02/03 00:33:59;;;;;;;4.00;2.00;;;;;;;1.05;92.97;101102.96;105072;1262;102334;-75
2023/02/03 00:36:48;;;;;;;6.00;2.30;;;;;;;1.05;92.94;101103.80;105090;1262;99094;-74
2023/02/03 00:39:37;;;;;;;3.20;2.00;;;;;;;1.06;92.82;101094.24;104962;1274;97985;-75
2023/02/03 00:42:22;;;;;;;4.50;2.70;;;;;;;1.06;92.67;101093.40;105051;1262;97944;-74
2023/02/03 00:45:08;;;;;;;4.50;2.40;;;;;;;1.04;92.24;101095.32;105062;1262;97907;-75
2023/02/03 00:47:53;;;;;;;4.10;2.40;;;;;;;1.02;92.32;101096.00;105075;1263;101424;-76
2023/02/03 00:50:39;;;;;;;5.10;2.50;;;;;;;1.02;92.44;101097.37;105029;1259;99086;-75
2023/02/03 00:53:24;;;;;;;4.80;2.20;;;;;;;1.04;92.38;101098.32;105033;1265;97982;-74
2023/02/03 00:56:11;;;;;;;3.90;2.10;;;;;;;1.05;92.08;101095.79;105069;1265;98019;-75
2023/02/03 00:58:57;;;;;;;3.70;2.00;;;;;;;1.04;91.87;101098.63;105020;1262;98369;-75
2023/02/03 01:01:42;;;;;;;4.80;2.80;;;;;;;1.03;91.67;101100.80;105049;1260;102382;-74
2023/02/03 01:04:27;;;;;;;3.70;2.20;;;;;;;1.00;91.44;101100.83;105060;1260;99132;-75
2023/02/03 01:07:13;;;;;;;4.90;2.20;;;;;;;1.00;91.33;101102.82;105080;1265;98985;-74
2023/02/03 01:09:59;;;;;;;3.60;1.90;;;;;;;0.96;91.08;101098.70;104947;1265;99228;-75
2023/02/03 01:12:44;;;;;;;4.30;2.20;;;;;;;0.93;90.75;101098.95;105101;1273;97965;-75
2023/02/03 01:15:29;;;;;;;3.50;2.00;;;;;;;0.85;90.46;101099.38;105050;1260;102692;-74
2023/02/03 01:18:16;;;;;;;4.80;2.40;;;;;;;0.78;90.40;101092.80;105090;1260;99051;-74
2023/02/03 01:21:12;;;;;;;8.30;2.70;;;;;;;0.77;90.59;101092.02;105100;1265;98090;-75
2023/02/03 01:23:59;;;;;;;6.70;4.00;;;;;;;0.77;90.52;101088.52;105325;1262;97757;-74
2023/02/03 01:26:45;;;;;;;5.20;2.50;;;;;;;0.78;90.71;101088.59;105043;1262;99660;-74
2023/02/03 01:29:30;;;;;;;7.40;2.70;;;;;;;0.79;90.65;101091.84;105113;1263;101485;-75
2023/02/03 01:32:16;;;;;;;6.60;2.70;;;;;;;0.79;90.67;101091.52;105078;1264;100336;-75
2023/02/03 01:35:01;;;;;;;7.30;3.60;;;;;;;0.79;90.50;101084.33;105064;1262;98077;-75
2023/02/03 01:37:47;;;;;;;7.60;3.10;;;;;;;0.80;90.50;101088.12;105006;1264;98059;-75
2023/02/03 01:40:32;;;;;;;6.00;3.30;;;;;;;0.81;90.41;101081.77;105141;1260;98553;-75
2023/02/03 01:43:34;;;;;;;4.10;2.80;;;;;;;0.81;90.57;101077.51;105013;1264;102427;-76
2023/02/03 01:46:34;;;;;;;7.20;3.40;;;;;;;0.80;90.39;101076.32;105049;1260;99172;-75
2023/02/03 01:49:31;;;;;;;6.80;4.10;;;;;;;0.79;90.50;101076.73;105136;1260;98374;-75
2023/02/03 01:52:17;;;;;;;7.00;4.10;;;;;;;0.82;90.61;101074.95;105049;1263;97964;-76
2023/02/03 01:55:06;;;;;;;7.80;4.50;;;;;;;0.86;90.70;101074.31;105078;1265;98492;-76
2023/02/03 01:58:06;;;;;;;;;;;;;;;0.88;90.58;101065.70;105058;1259;102597;-75
2023/02/03 02:00:54;;;;;;;7.00;3.80;;;;;;;0.88;90.31;101069.42;105085;1265;99869;-76
2023/02/03 02:03:49;;;;;;;7.70;4.10;;;;;;;0.88;90.17;101071.56;104975;1264;97960;-76
2023/02/03 02:06:34;;;;;;;6.80;4.00;;;;;;;0.87;89.97;101070.42;105011;1264;99154;-75
2023/02/03 02:09:20;;;;;;;6.30;3.50;;;;;;;0.85;89.94;101074.42;105068;1264;97967;-76
2023/02/03 02:12:10;;;;;;;5.80;3.50;;;;;;;0.86;90.04;101066.75;105188;1258;102754;-75
2023/02/03 02:14:56;;;;;;;4.60;3.10;;;;;;;0.85;89.80;101067.04;104990;1263;100440;-75
2023/02/03 02:18:06;;;;;;;6.40;3.50;;;;;;;0.82;89.68;101067.08;105079;1262;99002;-76
2023/02/03 02:21:04;;;;;;;7.30;3.20;;;;;;;0.80;89.68;101061.42;104874;1265;98198;-76
2023/02/03 02:24:03;;;;;;;5.90;3.10;;;;;;;0.77;89.49;101054.93;105022;1269;97921;-74
2023/02/03 02:26:58;;;;;;;6.90;3.80;;;;;;;0.73;89.38;101045.53;105101;1263;102214;-74
2023/02/03 02:30:07;;;;;;;5.60;2.90;;;;;;;0.69;89.28;101039.02;105006;1263;99087;-74
2023/02/03 02:33:10;;;;;;;6.50;3.00;;;;;;;0.66;89.31;101031.11;104974;1261;99269;-75
2023/02/03 02:36:09;;;;;;;7.40;3.50;;;;;;;0.65;89.19;101019.99;105129;1263;98024;-75
2023/02/03 02:39:03;;;;;;;5.20;2.60;;;;;;;0.62;89.23;101019.15;105038;1265;97966;-75
2023/02/03 02:42:00;;;;;;;5.70;3.20;;;;;;;0.60;89.16;101021.94;104988;1273;102591;-75
2023/02/03 02:44:54;;;;;;;6.20;2.90;;;;;;;0.58;88.94;101023.16;105024;1259;99066;-74
2023/02/03 02:47:40;;;;;;;5.20;3.20;;;;;;;0.56;88.88;101025.03;104784;1275;99361;-74
2023/02/03 02:50:33;;;;;;;6.40;3.50;;;;;;;0.57;89.14;101025.46;105014;1264;97947;-74
2023/02/03 02:53:23;;;;;;;6.00;3.40;;;;;;;0.57;88.87;101025.48;105081;1263;97965;-74
2023/02/03 02:56:12;;;;;;;6.20;3.30;;;;;;;0.53;88.67;101031.77;104980;1264;102592;-74
2023/02/03 02:59:01;;;;;;;7.00;4.20;;;;;;;0.50;88.79;101035.19;105076;1264;99213;-75
2023/02/03 03:01:46;;;;;;;6.90;4.10;;;;;;;0.46;88.91;101042.64;105318;1261;98979;-75
2023/02/03 03:04:33;;;;;;;5.40;3.40;;;;;;;0.43;88.91;101044.63;105036;1258;99250;-75
2023/02/03 03:07:26;;;;;;;9.70;4.30;;;;;;;0.42;88.94;101044.73;105106;1264;97881;-74
2023/02/03 03:10:20;;;;;;;8.30;4.00;;;;;;;0.42;88.96;101046.29;105008;1264;102306;-75
2023/02/03 03:13:12;;;;;;;9.60;5.20;;;;;;;0.41;88.97;101041.09;104985;1273;99244;-75
2023/02/03 03:16:03;;;;;;;13.00;5.90;;;;;;;0.39;89.01;101038.07;105060;1273;98915;-75
2023/02/03 03:18:55;;;;;;;10.20;5.00;;;;;;;0.38;89.03;101030.29;105058;1260;98570;-75
2023/02/03 03:21:46;;;;;;;9.10;6.10;;;;;;;0.35;88.98;101028.33;105118;1264;98091;-75
2023/02/03 03:24:46;;;;;;;10.00;5.50;;;;;;;0.32;88.91;101028.09;105012;1264;102064;-75
2023/02/03 03:27:38;;;;;;;8.20;5.10;;;;;;;0.29;89.16;101030.02;105145;1259;99998;-76
2023/02/03 03:30:28;;;;;;;8.80;4.90;;;;;;;0.27;89.27;101026.66;105304;1263;98860;-75
2023/02/03 03:33:13;;;;;;;9.20;4.80;;;;;;;0.30;89.43;101026.52;105272;1263;98070;-75
2023/02/03 03:36:18;;;;;;;9.40;4.50;;;;;;;0.31;89.40;101020.55;105358;1264;98505;-74
2023/02/03 03:39:13;;;;;;;9.00;3.80;;;;;;;0.30;89.15;101013.45;105152;1265;101346;-74
2023/02/03 03:42:11;;;;;;;7.20;4.40;;;;;;;0.28;89.26;101011.00;105026;1261;100041;-75
2023/02/03 03:45:03;;;;;;;8.50;4.40;;;;;;;0.26;89.21;101006.19;105010;1263;97885;-75
2023/02/03 03:48:02;;;;;;;8.50;4.30;;;;;;;0.25;89.12;101000.66;104989;1260;97856;-75
2023/02/03 03:50:56;;;;;;;10.60;5.50;;;;;;;0.24;89.10;100998.30;105066;1262;98628;-75
2023/02/03 03:53:44;;;;;;;11.70;4.80;;;;;;;0.23;89.14;100992.74;105024;1264;103599;-76
2023/02/03 03:56:37;;;;;;;8.80;5.10;;;;;;;0.22;89.27;100994.00;105049;1261;101329;-76
2023/02/03 03:59:27;;;;;;;9.50;5.40;;;;;;;0.20;89.24;100997.01;105049;1262;97932;-75
2023/02/03 04:02:15;;;;;;;12.10;4.80;;;;;;;0.17;89.19;101001.59;104971;1261;97903;-75
2023/02/03 04:05:02;;;;;;;10.90;7.00;;;;;;;0.15;89.37;101003.16;105042;1263;99228;-74
2023/02/03 04:07:47;;;;;;;9.50;4.70;;;;;;;0.13;89.45;101005.95;105074;1258;101627;-75
2023/02/03 04:10:37;;;;;;;9.30;5.50;;;;;;;0.11;89.68;101006.41;104998;1266;99084;-74
2023/02/03 04:13:22;;;;;;;8.60;5.30;;;;;;;0.11;89.86;101011.49;105131;1262;99024;-74
2023/02/03 04:16:08;;;;;;;8.20;5.30;;;;;;;0.12;90.09;101013.59;105140;1263;98039;-75
2023/02/03 04:18:53;;;;;;;10.50;5.40;;;;;;;0.12;90.30;101011.79;105075;1261;97875;-75
2023/02/03 04:21:39;;;;;;;11.30;6.10;;;;;;;0.14;90.50;101010.75;105191;1260;101365;-75
2023/02/03 04:24:25;;;;;;;11.60;6.50;;;;;;;0.15;90.45;101016.66;105386;1264;101239;-75
2023/02/03 04:27:10;;;;;;;12.10;7.30;;;;;;;0.14;90.30;101016.05;105251;1261;99044;-75
2023/02/03 04:29:56;;;;;;;12.90;7.70;;;;;;;0.11;90.53;101014.68;105040;1263;97955;-74
2023/02/03 04:32:41;;;;;;;13.80;8.80;;;;;;;0.11;90.61;101015.58;105005;1263;98508;-75
2023/02/03 04:35:27;;;;;;;13.90;8.60;;;;;;;0.08;90.70;101009.63;105296;1259;101356;-75
2023/02/03 04:38:13;;;;;;;11.80;7.40;;;;;;;0.06;90.59;101003.13;105348;1262;99968;-75
2023/02/03 04:40:58;;;;;;;16.60;9.30;;;;;;;0.02;90.75;100999.20;105193;1261;97999;-76
2023/02/03 04:43:43;;;;;;;14.60;7.30;;;;;;;-0.02;90.89;100998.57;105302;1264;98018;-75
2023/02/03 04:46:29;;;;;;;11.30;6.80;;;;;;;-0.05;91.05;100992.83;105264;1264;98483;-74
2023/02/03 04:49:16;;;;;;;11.30;6.00;;;;;;;-0.04;91.16;100988.58;105285;1273;103107;-75
2023/02/03 04:52:02;;;;;;;11.80;6.80;;;;;;;-0.03;91.47;100981.98;105436;1261;99276;-75
2023/02/03 04:54:47;;;;;;;13.90;6.20;;;;;;;-0.00;91.60;100976.19;105037;1273;99287;-75
2023/02/03 04:57:33;;;;;;;13.10;6.90;;;;;;;0.01;91.48;100973.80;104970;1264;98635;-74
2023/02/03 05:00:19;;;;;;;10.70;6.50;;;;;;;0.03;91.51;100967.17;105140;1261;98473;-75
2023/02/03 05:03:04;;;;;;;9.80;5.90;;;;;;;0.03;91.50;100968.20;105043;1261;101387;-75
2023/02/03 05:05:49;;;;;;;11.70;6.40;;;;;;;0.02;91.40;100969.91;105067;1261;99096;-75
2023/02/03 05:08:35;;;;;;;15.20;7.00;;;;;;;0.01;91.55;100971.88;104969;1261;98704;-75
2023/02/03 05:11:21;;;;;;;12.80;7.80;;;;;;;-0.01;91.55;100971.30;105064;1262;97958;-75
2023/02/03 05:14:07;;;;;;;11.90;7.70;;;;;;;-0.03;91.51;100966.35;105023;1261;99262;-74
2023/02/03 05:16:52;;;;;;;12.10;6.50;;;;;;;-0.05;91.62;100962.79;105024;1267;103354;-75
2023/02/03 05:19:38;;;;;;;14.40;7.10;;;;;;;-0.08;91.67;100965.51;105054;1264;99154;-75
2023/02/03 05:22:23;;;;;;;15.10;7.40;;;;;;;-0.11;91.72;100962.73;105012;1264;99094;-74
2023/02/03 05:25:09;;;;;;;15.70;7.50;;;;;;;-0.13;91.80;100955.13;104996;1260;97980;-75
2023/02/03 05:27:54;;;;;;;13.50;8.00;;;;;;;-0.14;91.89;100953.26;105009;1261;98422;-75
2023/02/03 05:30:40;;;;;;;13.40;8.10;;;;;;;-0.13;91.96;100948.31;104940;1263;101500;-74
2023/02/03 05:33:26;;;;;;;15.40;8.70;;;;;;;-0.13;92.10;100944.80;104997;1261;100779;-74
2023/02/03 05:36:12;;;;;;;14.60;8.90;;;;;;;-0.11;92.22;100941.15;104954;1263;98116;-75
2023/02/03 05:38:58;;;;;;;17.20;9.60;;;;;;;-0.08;92.21;100940.75;104964;1261;98034;-74
2023/02/03 05:41:52;;;;;;;17.80;10.50;;;;;;;-0.06;92.21;100939.86;104987;1263;99794;-74
2023/02/03 05:44:38;;;;;;;23.60;9.70;;;;;;;-0.05;92.24;100939.82;105007;1262;102055;-73
2023/02/03 05:47:24;;;;;;;14.40;8.20;;;;;;;-0.05;92.30;100935.40;105153;1264;99132;-74
2023/02/03 05:50:09;;;;;;;18.10;9.10;;;;;;;-0.05;92.30;100928.55;105157;1264;98575;-74
2023/02/03 05:52:55;;;;;;;16.20;9.10;;;;;;;-0.04;92.32;100925.52;105248;1263;97973;-75
2023/02/03 05:55:40;;;;;;;14.00;8.20;;;;;;;-0.03;92.41;100925.44;105012;1259;98474;-74
2023/02/03 05:58:26;;;;;;;15.30;8.50;;;;;;;-0.03;92.43;100922.11;105154;1260;103031;-74
2023/02/03 06:01:11;;;;;;;12.20;6.80;;;;;;;-0.05;92.39;100922.11;105003;1264;99067;-74
2023/02/03 06:03:57;;;;;;;13.90;7.30;;;;;;;-0.07;92.46;100919.76;104856;1260;97996;-75
2023/02/03 06:06:42;;;;;;;12.30;7.00;;;;;;;-0.04;92.71;100919.05;104989;1263;97969;-74
2023/02/03 06:09:28;;;;;;;17.70;7.50;;;;;;;-0.03;92.55;100917.73;105087;1262;97959;-75
2023/02/03 06:12:14;;;;;;;15.00;6.60;;;;;;;-0.02;92.72;100912.22;105021;1260;101343;-74
2023/02/03 06:15:00;;;;;;;13.80;7.60;;;;;;;-0.01;92.78;100910.20;105130;1264;100363;-75
2023/02/03 06:17:47;;;;;;;11.60;6.90;;;;;;;-0.02;92.56;100910.30;104966;1260;98559;-74
2023/02/03 06:20:33;;;;;;;14.00;7.40;;;;;;;-0.02;92.79;100912.95;104880;1265;99177;-74
2023/02/03 06:23:18;;;;;;;12.70;7.00;;;;;;;-0.03;92.65;100906.69;104992;1260;98474;-75
2023/02/03 06:26:04;;;;;;;17.10;8.20;;;;;;;-0.03;92.78;100898.59;105079;1261;102502;-74
2023/02/03 06:28:50;;;;;;;15.90;9.30;;;;;;;-0.02;92.89;100890.93;105043;1260;99077;-74
2023/02/03 06:31:35;;;;;;;15.00;7.10;;;;;;;-0.03;92.96;100883.63;105032;1260;100078;-75
2023/02/03 06:34:21;;;;;;;11.40;6.70;;;;;;;-0.04;92.85;100882.66;105028;1262;98078;-74
2023/02/03 06:37:06;;;;;;;12.90;7.70;;;;;;;-0.07;92.93;100879.04;105297;1259;98490;-75
2023/02/03 06:39:52;;;;;;;14.30;8.20;;;;;;;-0.07;93.08;100873.95;105227;1263;101596;-75
2023/02/03 06:42:38;;;;;;;16.40;6.70;;;;;;;-0.05;93.13;100869.42;105273;1262;99035;-75
2023/02/03 06:45:23;;;;;;;14.50;6.40;;;;;;;-0.04;93.07;100861.27;105074;1259;97970;-75
2023/02/03 06:48:09;;;;;;;10.10;6.50;;;;;;;-0.03;93.13;100859.63;104985;1262;98024;-75
2023/02/03 06:50:55;;;;;;;11.20;7.00;;;;;;;-0.04;93.21;100854.05;104978;1260;98476;-76
2023/02/03 06:53:40;;;;;;;12.80;7.40;;;;;;;-0.02;93.23;100844.60;105084;1260;101937;-75
2023/02/03 06:56:26;;;;;;;12.60;7.10;;;;;;;0.01;93.32;100838.45;105047;1262;99075;-74
2023/02/03 06:59:12;;;;;;;14.00;7.20;;;;;;;0.03;93.33;100832.69;105189;1259;98996;-74
2023/02/03 07:01:57;;;;;;;14.60;7.20;;;;;;;0.05;93.41;100830.76;104935;1263;98590;-75
2023/02/03 07:04:44;;;;;;;12.60;7.80;;;;;;;0.08;93.41;100825.30;104966;1260;98495;-75
2023/02/03 07:07:31;;;;;;;16.00;8.70;;;;;;;0.08;93.32;100816.16;104997;1260;102752;-74
2023/02/03 07:10:17;;;;;;;23.60;12.70;;;;;;;0.09;93.39;100813.08;104984;1264;100112;-75
2023/02/03 07:13:05;;;;;;;23.90;12.70;;;;;;;0.11;93.48;100806.59;104991;1259;99428;-74
2023/02/03 07:15:51;;;;;;;18.50;10.70;;;;;;;0.14;93.58;100807.48;105042;1259;97919;-74
2023/02/03 07:18:36;;;;;;;19.30;8.80;;;;;;;0.12;93.44;100811.50;106229;1259;98002;-75
2023/02/03 07:21:22;;;;;;;16.80;8.70;;;;;;;0.13;93.61;100809.13;105338;1262;101332;-74
2023/02/03 07:24:07;;;;;;;13.90;7.30;;;;;;;0.15;93.66;100805.81;105045;1263;100482;-75
2023/02/03 07:26:53;;;;;;;12.30;7.20;;;;;;;0.15;93.56;100799.64;105211;1263;98956;-75
2023/02/03 07:29:38;;;;;;;16.60;8.00;;;;;;;0.17;93.62;100791.75;105228;1259;98540;-75
2023/02/03 07:32:24;;;;;;;13.50;7.80;;;;;;;0.17;93.51;100786.82;104997;1264;97914;-74
2023/02/03 07:35:09;;;;;;;17.70;8.50;;;;;;;0.19;93.94;100783.51;105012;1262;101332;-75
2023/02/03 07:37:55;;;;;;;24.10;15.40;;;;;;;0.26;94.22;100775.28;104984;1259;99084;-74
2023/02/03 07:40:40;;;;;;;66.20;32.90;;;;;;;0.29;93.75;100771.91;105071;1263;98059;-74
2023/02/03 07:43:26;;;;;;;167.20;73.20;;;;;;;0.31;93.75;100768.86;105211;1260;97967;-75
2023/02/03 07:46:23;;;;;;;55.50;35.60;;;;;;;0.34;93.71;100761.64;105596;1262;98509;-86
2023/02/03 07:49:12;;;;;;;26.10;14.30;;;;;;;0.35;93.54;100756.98;105791;1260;103598;-85
2023/02/03 07:51:58;;;;;;;22.40;10.60;;;;;;;0.38;93.61;100746.94;105950;1262;99317;-83
2023/02/03 07:54:43;;;;;;;23.20;15.30;;;;;;;0.41;93.75;100743.30;105836;1276;99002;-81
2023/02/03 07:57:32;;;;;;;20.50;10.50;;;;;;;0.47;93.64;100741.66;105698;1260;97857;-83
2023/02/03 08:00:18;;;;;;;23.00;11.90;;;;;;;0.50;93.44;100738.61;105956;1259;98479;-78
2023/02/03 08:03:03;;;;;;;20.80;10.10;;;;;;;0.53;93.49;100735.20;105642;1259;102584;-78
2023/02/03 08:05:50;;;;;;;17.90;9.90;;;;;;;0.56;93.46;100730.88;105841;1259;101241;-79
2023/02/03 08:08:35;;;;;;;25.20;14.00;;;;;;;0.59;93.30;100728.55;105597;1263;98940;-78
2023/02/03 08:11:21;;;;;;;16.10;9.20;;;;;;;0.62;93.23;100728.28;105593;1264;98917;-78
2023/02/03 08:14:06;;;;;;;16.60;8.50;;;;;;;0.67;93.22;100725.84;105246;1267;98408;-74
2023/02/03 08:16:51;;;;;;;20.60;10.10;;;;;;;0.69;93.08;100722.13;104963;1260;102654;-73
2023/02/03 08:19:37;;;;;;;20.00;9.60;;;;;;;0.71;93.08;100717.02;105045;1260;99092;-74
2023/02/03 08:22:22;;;;;;;13.00;7.40;;;;;;;0.75;93.10;100706.02;104904;1275;98965;-74
2023/02/03 08:25:09;;;;;;;14.80;8.50;;;;;;;0.78;92.89;100698.76;105056;1262;99183;-75
2023/02/03 08:27:54;;;;;;;14.50;9.00;;;;;;;0.82;93.10;100698.65;104971;1263;98282;-75
2023/02/03 08:30:40;;;;;;;18.00;10.40;;;;;;;0.87;93.05;100696.59;105645;1259;101535;-78
2023/02/03 08:33:26;;;;;;;14.90;8.00;;;;;;;0.92;92.85;100691.52;105449;1259;99081;-77
2023/02/03 08:36:22;;;;;;;17.20;8.60;;;;;;;0.95;92.87;100687.17;105538;1272;99634;-83
2023/02/03 08:39:08;;;;;;;17.40;9.20;;;;;;;1.00;92.71;100677.63;105968;1259;98077;-81
2023/02/03 08:41:54;;;;;;;19.40;9.60;;;;;;;1.04;92.50;100669.70;106240;1259;97958;-81
2023/02/03 08:44:39;;;;;;;27.00;11.80;;;;;;;1.07;92.20;100663.31;106126;1260;102787;-80
2023/02/03 08:47:25;;;;;;;21.30;10.40;;;;;;;1.11;92.15;100660.21;106166;1262;99101;-82
2023/02/03 08:50:13;;;;;;;19.60;9.30;;;;;;;1.14;92.01;100653.47;106297;1259;99273;-80
2023/02/03 08:52:59;;;;;;;18.20;8.50;;;;;;;1.17;91.87;100647.02;106069;1259;97956;-82
2023/02/03 08:55:44;;;;;;;20.20;9.20;;;;;;;1.20;91.73;100643.80;106015;1265;97300;-84
2023/02/03 08:58:29;;;;;;;18.00;9.00;;;;;;;1.23;91.88;100641.08;105820;1262;102956;-82
2023/02/03 09:01:15;;;;;;;16.30;7.70;;;;;;;1.25;91.61;100636.48;105924;1259;100335;-81
2023/02/03 09:04:02;;;;;;;13.80;7.00;;;;;;;1.26;91.40;100629.88;105501;1267;98539;-81
2023/02/03 09:06:55;;;;;;;14.20;8.10;;;;;;;1.28;91.30;100622.69;106158;1258;97845;-80
2023/02/03 09:09:40;;;;;;;18.80;7.70;;;;;;;1.31;91.22;100617.54;105964;1263;99394;-79
2023/02/03 09:12:26;;;;;;;14.30;7.10;;;;;;;1.31;90.96;100613.15;105928;1262;102176;-81
2023/02/03 09:15:11;;;;;;;13.00;7.10;;;;;;;1.31;90.72;100605.04;105697;1260;100515;-84
2023/02/03 09:17:57;;;;;;;13.80;6.10;;;;;;;1.32;90.60;100600.60;105730;1267;97977;-75
2023/02/03 09:20:43;;;;;;;11.60;7.80;;;;;;;1.35;90.75;100591.29;105830;1265;97951;-75
2023/02/03 09:23:28;;;;;;;13.20;6.80;;;;;;;1.40;90.57;100581.20;105299;1260;98982;-76
2023/02/03 09:26:15;;;;;;;13.30;6.30;;;;;;;1.43;90.28;100575.29;105393;1259;102585;-74
2023/02/03 09:29:01;;;;;;;12.50;6.00;;;;;;;1.47;90.30;100571.14;105046;1263;99560;-74
2023/02/03 09:31:48;;;;;;;12.80;6.70;;;;;;;1.50;90.10;100565.58;104984;1262;100055;-75
2023/02/03 09:34:40;;;;;;;12.30;5.90;;;;;;;1.50;90.02;100553.25;106214;1261;98092;-85
2023/02/03 09:37:28;;;;;;;15.10;6.60;;;;;;;1.51;89.76;100542.95;106415;1258;96668;-85
2023/02/03 09:40:35;;;;;;;13.20;6.30;;;;;;;1.53;89.98;100536.28;105963;1259;101655;-80
2023/02/03 09:43:42;;;;;;;8.40;4.60;;;;;;;1.57;89.99;100524.73;105698;1262;99078;-78
2023/02/03 09:46:33;;;;;;;13.10;5.70;;;;;;;1.57;89.65;100510.60;105305;1267;99023;-81
2023/02/03 09:49:39;;;;;;;12.30;5.80;;;;;;;1.57;89.31;100499.90;105611;1262;99111;-77
2023/02/03 09:52:30;;;;;;;14.10;6.20;;;;;;;1.58;89.17;100495.58;106055;1262;97903;-81
2023/02/03 09:55:24;;;;;;;10.90;5.70;;;;;;;1.60;89.22;100492.75;106614;1259;102592;-80
2023/02/03 09:58:18;;;;;;;12.40;5.30;;;;;;;1.61;89.15;100489.67;106295;1259;99167;-82
2023/02/03 10:01:09;;;;;;;11.80;5.10;;;;;;;1.62;88.89;100487.88;105861;1259;97980;-84
2023/02/03 10:04:23;;;;;;;11.50;5.30;;;;;;;1.64;88.83;100481.73;105881;1267;97953;-83
2023/02/03 10:07:51;;;;;;;8.40;4.90;;;;;;;1.63;88.63;100471.72;105990;1259;98079;-82
2023/02/03 10:10:47;;;;;;;12.10;5.10;;;;;;;1.62;88.38;100463.91;105631;1264;101342;-82
2023/02/03 10:13:44;;;;;;;12.00;5.00;;;;;;;1.62;88.38;100455.30;106187;1259;100401;-84
2023/02/03 10:16:47;;;;;;;9.70;5.20;;;;;;;1.62;88.40;100442.46;106487;1259;98720;-81
2023/02/03 10:20:11;;;;;;;8.50;4.40;;;;;;;1.63;88.45;100432.70;105991;1262;98421;-81
2023/02/03 10:23:01;;;;;;;11.20;4.70;;;;;;;1.65;88.52;100419.50;105997;1259;98524;-81
2023/02/03 10:25:55;;;;;;;8.70;4.60;;;;;;;1.68;88.37;100412.21;106177;1263;101461;-79
2023/02/03 10:28:49;;;;;;;16.90;5.20;;;;;;;1.69;88.48;100397.09;105677;1265;99897;-80
2023/02/03 10:31:36;;;;;;;13.40;5.30;;;;;;;1.71;88.53;100386.17;105999;1259;98415;-77
2023/02/03 10:34:23;;;;;;;15.40;6.20;;;;;;;1.71;88.25;100376.48;105763;1260;97948;-78
2023/02/03 10:37:15;;;;;;;9.60;6.00;;;;;;;1.71;87.97;100365.77;106044;1259;98489;-82
2023/02/03 10:40:01;;;;;;;10.10;5.40;;;;;;;1.73;88.04;100352.22;106194;1259;102639;-82
2023/02/03 10:45:53;;;;;;;11.40;6.30;;;;;;;1.75;87.97;100336.23;106443;1259;97965;-80
2023/02/03 10:48:38;;;;;;;13.50;7.10;;;;;;;1.76;87.96;100325.39;105827;1264;98047;-80
2023/02/03 10:51:30;;;;;;;12.20;6.60;;;;;;;1.77;87.80;100321.21;106207;1260;98838;-79
2023/02/03 10:54:26;;;;;;;10.00;5.50;;;;;;;1.77;87.94;100319.44;106112;1259;102583;-77
2023/02/03 10:57:13;;;;;;;12.70;5.50;;;;;;;1.80;88.09;100307.92;105290;1259;100373;-77
2023/02/03 11:00:17;;;;;;;8.80;5.40;;;;;;;1.81;87.89;100296.25;106223;1264;98038;-85
2023/02/03 11:03:09;;;;;;;10.80;4.80;;;;;;;1.80;87.63;100285.89;105983;1259;97948;-79
2023/02/03 11:06:11;;;;;;;9.80;4.40;;;;;;;1.83;87.71;100277.03;106038;1262;97977;-81
2023/02/03 11:08:57;;;;;;;9.00;4.20;;;;;;;1.84;87.59;100268.42;105625;1259;101346;-82
2023/02/03 11:11:42;;;;;;;8.80;4.20;;;;;;;1.85;87.44;100257.45;106008;1266;99235;-78
2023/02/03 11:14:35;;;;;;;9.50;5.10;;;;;;;1.86;87.24;100248.77;105685;1259;98055;-79
2023/02/03 11:17:25;;;;;;;10.30;4.50;;;;;;;1.85;87.16;100238.59;105866;1259;97964;-80
2023/02/03 11:20:14;;;;;;;9.00;4.30;;;;;;;1.85;87.16;100228.58;106376;1259;98397;-79
2023/02/03 11:22:59;;;;;;;8.30;4.20;;;;;;;1.84;87.12;100211.59;105788;1265;101347;-78
2023/02/03 11:25:45;;;;;;;8.10;4.20;;;;;;;1.83;86.88;100207.48;106209;1259;99030;-81
2023/02/03 11:28:30;;;;;;;6.90;4.00;;;;;;;1.82;86.93;100200.67;105727;1260;98183;-81
2023/02/03 11:31:21;;;;;;;9.90;4.30;;;;;;;1.83;87.03;100184.05;106434;1262;97919;-81
2023/02/03 11:34:25;;;;;;;12.60;4.90;;;;;;;1.83;87.11;100175.92;105476;1259;97951;-76
2023/02/03 11:37:30;;;;;;;8.80;4.50;;;;;;;1.85;87.22;100171.19;106155;1265;101256;-79
2023/02/03 11:40:16;;;;;;;6.70;4.10;;;;;;;1.87;87.37;100161.69;106168;1259;100302;-80
2023/02/03 11:43:14;;;;;;;8.80;4.50;;;;;;;1.87;87.36;100155.16;105949;1259;98939;-82
2023/02/03 11:46:07;;;;;;;10.20;5.30;;;;;;;1.87;86.81;100151.81;106094;1259;98165;-81
2023/02/03 11:49:08;;;;;;;12.20;5.90;;;;;;;1.87;87.01;100150.20;105629;1262;98412;-74
2023/02/03 11:52:27;;;;;;;12.50;6.40;;;;;;;1.90;87.18;100144.17;105449;1262;101346;-81
2023/02/03 11:55:36;;;;;;;8.50;6.60;;;;;;;1.90;86.63;100139.42;105998;1259;99823;-83
2023/02/03 11:58:40;;;;;;;14.00;6.80;;;;;;;1.88;86.53;100130.05;106163;1259;98061;-79
2023/02/03 12:01:47;;;;;;;11.40;7.10;;;;;;;1.88;86.46;100127.92;106550;1259;97967;-79
2023/02/03 12:04:54;;;;;;;9.50;5.70;;;;;;;1.91;86.64;100120.98;106178;1259;98531;-82
2023/02/03 12:07:51;;;;;;;11.30;6.20;;;;;;;1.93;86.47;100109.73;105628;1259;102654;-81
2023/02/03 12:10:43;;;;;;;11.10;7.00;;;;;;;1.91;85.98;100101.61;106299;1259;99254;-81
2023/02/03 12:14:00;;;;;;;;;;;;;;;;;;;;;
2023/02/03 12:17:24;;;;;;;14.30;7.60;;;;;;;1.85;85.96;100088.15;106137;1258;97963;-84
2023/02/03 12:20:33;;;;;;;13.40;7.00;;;;;;;1.84;86.26;100077.28;106045;1259;98093;-82
2023/02/03 12:23:29;;;;;;;11.80;6.80;;;;;;;1.83;86.23;100065.23;106188;1264;102203;-81
2023/02/03 12:26:25;;;;;;;12.70;5.70;;;;;;;1.80;86.42;100050.23;106157;1259;99836;-82
2023/02/03 12:29:22;;;;;;;13.70;6.30;;;;;;;1.74;86.53;100037.02;106050;1259;97989;-81
2023/02/03 12:32:25;;;;;;;12.50;6.30;;;;;;;1.68;86.88;100022.44;106425;1262;97963;-79
2023/02/03 12:35:32;;;;;;;13.30;6.70;;;;;;;1.61;87.39;100013.08;106199;1264;98391;-81
2023/02/03 12:38:50;;;;;;;13.20;6.70;;;;;;;1.56;88.03;99998.45;106353;1259;101352;-80
2023/02/03 12:41:43;;;;;;;9.20;5.20;;;;;;;1.50;88.62;99988.08;105971;1263;99061;-76
2023/02/03 12:44:41;;;;;;;16.40;7.30;;;;;;;1.45;88.97;99981.34;105249;1262;98562;-76
2023/02/03 12:47:41;;;;;;;11.80;7.40;;;;;;;1.41;89.35;99972.94;105105;1259;97977;-75
2023/02/03 12:50:41;;;;;;;12.90;7.90;;;;;;;1.37;89.82;99961.70;105101;1259;98482;-77
2023/02/03 12:53:31;;;;;;;12.40;6.70;;;;;;;1.34;90.29;99951.86;105238;1260;103032;-76
2023/02/03 12:56:25;;;;;;;13.30;6.30;;;;;;;1.32;90.68;99939.01;105134;1262;99181;-77
2023/02/03 12:59:22;;;;;;;14.70;7.00;;;;;;;1.27;90.96;99925.02;105073;1259;99134;-77
2023/02/03 13:02:20;;;;;;;10.60;6.30;;;;;;;1.21;91.31;99915.80;105017;1262;98018;-76
2023/02/03 13:05:20;;;;;;;11.80;6.50;;;;;;;1.15;91.77;99901.58;104999;1262;99287;-76
2023/02/03 13:08:21;;;;;;;13.80;6.70;;;;;;;1.08;92.08;99884.69;105179;1260;101332;-75